createdAt,value
2022-07-26T00:05:12.560Z,1.4
2022-07-26T00:19:12.598Z,0.6
2022-07-26T00:33:12.580Z,2.4
2022-07-26T00:47:12.976Z,0.4
2022-07-26T01:01:12.977Z,1.0
2022-07-26T01:15:12.879Z,0
2022-07-26T01:29:13.176Z,0.2
2022-07-26T01:43:13.156Z,0.8
2022-07-26T01:57:13.152Z,0.8
2022-07-26T02:11:13.239Z,0
2022-07-26T02:25:13.245Z,0
2022-07-26T02:39:13.303Z,0
2022-07-26T02:53:13.256Z,0
2022-07-26T03:07:13.262Z,0
2022-07-26T03:21:13.306Z,0
2022-07-26T03:35:13.322Z,0
2022-07-26T03:50:13.320Z,0
2022-07-26T04:05:13.331Z,0
2022-07-26T04:20:13.343Z,0
2022-07-26T04:35:13.358Z,0
2022-07-26T04:50:13.369Z,0.8
2022-07-26T05:05:13.373Z,0
2022-07-26T05:20:13.478Z,0
2022-07-26T05:35:13.505Z,0
2022-07-26T05:50:13.508Z,0
2022-07-26T06:05:13.511Z,0
2022-07-26T06:20:13.509Z,0
2022-07-26T06:35:13.514Z,0
2022-07-26T06:50:13.577Z,0
2022-07-26T07:05:13.651Z,0
2022-07-26T07:20:13.657Z,0.6
2022-07-26T07:35:13.628Z,0
2022-07-26T07:50:13.604Z,0.6
2022-07-26T08:05:13.871Z,0.4
2022-07-26T08:20:14.776Z,1.2
2022-07-26T08:35:17.213Z,0.6
2022-07-26T08:50:13.807Z,0
2022-07-26T09:05:13.886Z,0.2
2022-07-26T09:20:13.842Z,0.8
2022-07-26T09:35:44.463Z,0.9
2022-07-26T09:50:13.942Z,0.8
2022-07-26T10:05:13.987Z,1.5
2022-07-26T10:20:17.188Z,1.0
2022-07-26T10:35:14.015Z,0.8
2022-07-26T10:56:55.504Z,1.4
2022-07-26T11:11:55.478Z,1.2
2022-07-26T11:27:55.488Z,2.2
2022-07-26T11:43:59.072Z,1.4
2022-07-26T11:58:55.619Z,1.2
2022-07-26T12:13:56.190Z,1.6
2022-07-26T12:29:55.859Z,2.1
2022-07-26T12:44:55.964Z,2.2
2022-07-26T12:59:55.963Z,2.1
2022-07-26T13:14:56.060Z,2.0
2022-07-26T13:29:56.134Z,1.5
2022-07-26T13:44:56.073Z,1.5
2022-07-26T13:59:56.192Z,1.5
2022-07-26T14:14:56.254Z,1.2
2022-07-26T14:29:56.556Z,0.7
2022-07-26T14:44:56.534Z,0.8
2022-07-26T14:59:56.539Z,1.1
2022-07-26T15:14:56.599Z,1.1
2022-07-26T15:30:02.716Z,0.4
2022-07-26T15:44:56.625Z,0.4
2022-07-26T15:59:56.593Z,0.9
2022-07-26T16:14:56.595Z,1.4
2022-07-26T16:29:56.609Z,0.6
2022-07-26T16:44:56.700Z,0
2022-07-26T16:59:56.587Z,0.4
2022-07-26T17:14:56.597Z,0.8
2022-07-26T17:29:56.648Z,0.8
2022-07-26T17:44:56.633Z,0.4
2022-07-26T17:59:56.672Z,0
2022-07-26T18:14:56.726Z,0.6
2022-07-26T18:29:56.691Z,0
2022-07-26T18:44:56.733Z,0.6
2022-07-26T18:59:56.718Z,0
2022-07-26T19:14:56.745Z,0.6
2022-07-26T19:29:56.738Z,0.2
2022-07-26T19:43:56.787Z,0
2022-07-26T19:57:56.778Z,0.2
2022-07-26T20:11:56.815Z,0.2
2022-07-26T20:25:56.797Z,0.6
2022-07-26T20:39:56.793Z,0
2022-07-26T20:53:56.800Z,0.8
2022-07-26T21:07:59.010Z,0.6
2022-07-26T21:21:56.910Z,0
2022-07-26T21:35:56.895Z,0.8
2022-07-26T21:49:56.934Z,0.2
2022-07-26T22:03:56.919Z,0.8
2022-07-26T22:17:57.242Z,0
2022-07-26T22:31:57.527Z,0
2022-07-26T22:45:57.597Z,0.6
2022-07-26T22:59:57.579Z,0.8
2022-07-26T23:13:58.722Z,2.2
2022-07-26T23:27:57.569Z,1.2
2022-07-26T23:41:57.560Z,1.8
2022-07-26T23:55:57.568Z,1.2
